createdAt,value
2022-10-15T00:01:38.335Z,11.00
2022-10-15T00:04:05.729Z,11.40
2022-10-15T00:06:33.192Z,11.80
2022-10-15T00:09:00.351Z,11.20
2022-10-15T00:11:29.632Z,11.20
2022-10-15T00:14:00.339Z,11.90
2022-10-15T00:16:29.398Z,11.30
2022-10-15T00:18:59.707Z,11.60
2022-10-15T00:21:28.065Z,10.90
2022-10-15T00:23:56.567Z,11.10
2022-10-15T00:26:27.703Z,11.30
2022-10-15T00:28:59.187Z,11.30
2022-10-15T00:31:28.712Z,11.30
2022-10-15T00:34:00.625Z,11.90
2022-10-15T00:36:32.431Z,11.40
2022-10-15T00:39:00.507Z,11.50
2022-10-15T00:41:36.874Z,10.50
2022-10-15T00:44:29.554Z,11.20
2022-10-15T00:47:03.441Z,11.60
2022-10-15T00:50:10.075Z,11.50
2022-10-15T00:52:52.107Z,10.50
2022-10-15T00:55:31.849Z,10.50
2022-10-15T00:58:08.268Z,10.80
2022-10-15T01:00:35.931Z,10.40
2022-10-15T01:03:03.372Z,11.10
2022-10-15T01:05:31.727Z,10.80
2022-10-15T01:07:59.179Z,11.20
2022-10-15T01:10:42.570Z,11.00
2022-10-15T01:13:43.085Z,11.90
2022-10-15T01:16:43.289Z,11.50
2022-10-15T01:19:57.085Z,10.70
2022-10-15T01:22:46.760Z,11.00
2022-10-15T01:25:56.684Z,12.20
2022-10-15T01:28:54.593Z,10.90
2022-10-15T01:32:06.370Z,10.80
2022-10-15T01:34:51.650Z,10.50
2022-10-15T01:37:25.496Z,10.70
2022-10-15T01:40:15.778Z,10.20
2022-10-15T01:42:58.942Z,12.00
2022-10-15T01:45:51.549Z,10.70
2022-10-15T01:48:21.377Z,11.80
2022-10-15T01:50:53.985Z,11.00
2022-10-15T01:53:26.912Z,11.60
2022-10-15T01:56:04.670Z,11.30
2022-10-15T01:58:35.973Z,12.00
2022-10-15T02:01:03.501Z,11.20
2022-10-15T02:03:30.783Z,12.10
2022-10-15T02:06:10.989Z,10.80
2022-10-15T02:09:15.740Z,11.90
2022-10-15T02:12:10.411Z,11.10
2022-10-15T02:15:14.287Z,11.00
2022-10-15T02:17:54.257Z,10.90
2022-10-15T02:20:31.608Z,11.30
2022-10-15T02:23:42.176Z,10.40
2022-10-15T02:26:12.540Z,10.40
2022-10-15T02:28:47.336Z,10.70
2022-10-15T02:31:18.903Z,10.20
2022-10-15T02:33:48.230Z,10.80
2022-10-15T02:36:17.780Z,10.10
2022-10-15T02:38:47.243Z,10.60
2022-10-15T02:41:14.968Z,10.50
2022-10-15T02:43:42.431Z,10.00
2022-10-15T02:46:13.842Z,10.90
2022-10-15T02:48:40.938Z,10.40
2022-10-15T02:51:08.126Z,10.60
2022-10-15T02:53:35.510Z,10.70
2022-10-15T02:56:03.043Z,10.30
2022-10-15T02:58:31.130Z,10.10
2022-10-15T03:00:58.807Z,10.00
2022-10-15T03:03:26.025Z,9.90
2022-10-15T03:08:20.898Z,11.10
2022-10-15T03:10:49.069Z,10.60
2022-10-15T03:13:16.525Z,11.30
2022-10-15T03:15:43.629Z,10.90
2022-10-15T03:18:10.964Z,10.30
2022-10-15T03:20:38.058Z,10.90
2022-10-15T03:23:05.221Z,10.70
2022-10-15T03:25:32.610Z,10.40
2022-10-15T03:27:59.800Z,10.50
2022-10-15T03:30:26.902Z,10.30
2022-10-15T03:32:54.159Z,10.70
2022-10-15T03:35:22.631Z,12.00
2022-10-15T03:37:49.801Z,10.80
2022-10-15T03:40:17.218Z,10.20
2022-10-15T03:42:44.548Z,10.90
2022-10-15T03:45:12.014Z,11.90
2022-10-15T03:47:39.737Z,11.00
2022-10-15T03:50:07.445Z,10.20
2022-10-15T03:52:34.668Z,11.10
2022-10-15T03:55:02.050Z,11.40
2022-10-15T03:57:29.555Z,10.60
2022-10-15T03:59:56.850Z,10.50
2022-10-15T04:02:24.806Z,10.30
2022-10-15T04:04:54.086Z,11.20
2022-10-15T04:07:22.448Z,11.30
2022-10-15T04:12:18.649Z,12.30
2022-10-15T04:17:14.118Z,10.20
2022-10-15T04:19:51.393Z,12.10
2022-10-15T04:22:18.710Z,10.40
2022-10-15T04:29:49.265Z,11.10
2022-10-15T04:32:17.857Z,11.30
2022-10-15T04:34:46.516Z,10.10
2022-10-15T04:37:14.447Z,10.70
2022-10-15T04:39:41.900Z,11.50
2022-10-15T04:42:09.040Z,11.80
2022-10-15T04:44:36.607Z,10.70
2022-10-15T04:49:31.434Z,10.80
2022-10-15T04:51:58.874Z,11.10
2022-10-15T04:59:26.731Z,10.10
2022-10-15T05:01:54.167Z,10.40
2022-10-15T05:04:21.368Z,11.10
2022-10-15T05:06:48.836Z,12.40
2022-10-15T05:09:19.281Z,11.40
2022-10-15T05:14:14.237Z,11.50
2022-10-15T05:16:41.904Z,11.00
2022-10-15T05:19:11.119Z,12.30
2022-10-15T05:21:39.458Z,11.10
2022-10-15T05:24:07.143Z,11.10
2022-10-15T05:26:34.448Z,11.60
2022-10-15T05:29:02.091Z,11.00
2022-10-15T05:31:32.207Z,11.50
2022-10-15T05:33:59.895Z,12.20
2022-10-15T05:36:30.692Z,11.40
2022-10-15T05:39:03.069Z,11.40
2022-10-15T05:41:30.806Z,10.60
2022-10-15T05:43:59.482Z,11.00
2022-10-15T05:46:26.886Z,11.10
2022-10-15T05:48:59.208Z,11.30
2022-10-15T05:51:28.686Z,11.80
2022-10-15T05:53:57.777Z,12.20
2022-10-15T05:56:26.741Z,11.20
2022-10-15T06:03:50.845Z,11.60
2022-10-15T06:06:25.289Z,11.00
2022-10-15T06:08:54.725Z,11.60
2022-10-15T06:11:23.154Z,11.50
2022-10-15T06:16:22.655Z,12.10
2022-10-15T06:18:53.853Z,12.00
2022-10-15T06:21:21.308Z,12.20
2022-10-15T06:23:48.518Z,11.30
2022-10-15T06:26:16.097Z,12.50
2022-10-15T06:28:43.827Z,12.70
2022-10-15T06:33:39.772Z,11.50
2022-10-15T06:36:10.931Z,12.70
2022-10-15T06:38:39.610Z,12.80
2022-10-15T06:41:08.077Z,12.60
2022-10-15T06:43:36.268Z,13.80
2022-10-15T06:46:06.205Z,13.50
2022-10-15T06:51:03.896Z,13.10
2022-10-15T06:53:32.295Z,13.30
2022-10-15T06:56:04.976Z,13.40
2022-10-15T06:58:32.470Z,13.50
2022-10-15T07:01:08.052Z,13.60
2022-10-15T07:03:37.058Z,13.70
2022-10-15T07:06:07.832Z,13.50
2022-10-15T07:08:36.104Z,13.70
2022-10-15T07:11:07.349Z,13.70
2022-10-15T07:16:08.448Z,14.80
2022-10-15T07:18:37.111Z,13.30
2022-10-15T07:21:07.487Z,14.20
2022-10-15T07:28:30.372Z,14.00
2022-10-15T07:31:07.324Z,13.70
2022-10-15T07:33:35.815Z,14.50
2022-10-15T07:36:06.775Z,14.30
2022-10-15T07:38:35.716Z,13.70
2022-10-15T07:41:05.396Z,14.10
2022-10-15T07:43:33.529Z,13.90
2022-10-15T07:46:02.322Z,14.30
2022-10-15T07:48:30.225Z,14.70
2022-10-15T07:51:04.346Z,14.40
2022-10-15T07:53:32.818Z,15.50
2022-10-15T07:56:10.846Z,15.30
2022-10-15T07:58:39.595Z,15.40
2022-10-15T08:01:09.446Z,15.00
2022-10-15T08:03:38.120Z,14.60
2022-10-15T08:06:08.009Z,15.80
2022-10-15T08:08:36.709Z,15.70
2022-10-15T08:11:16.288Z,15.80
2022-10-15T08:13:46.991Z,16.10
2022-10-15T08:16:16.477Z,17.00
2022-10-15T08:18:44.076Z,17.00
2022-10-15T08:23:39.296Z,17.10
2022-10-15T08:26:06.965Z,17.90
2022-10-15T08:28:36.155Z,17.50
2022-10-15T08:31:05.972Z,18.00
2022-10-15T08:33:35.558Z,18.40
2022-10-15T08:36:06.546Z,19.50
2022-10-15T08:38:35.920Z,18.50
2022-10-15T08:41:14.373Z,19.00
2022-10-15T08:43:43.765Z,19.00
2022-10-15T08:46:20.571Z,19.00
2022-10-15T08:48:56.758Z,19.10
2022-10-15T08:51:34.295Z,18.80
2022-10-15T08:54:06.367Z,19.30
2022-10-15T08:56:39.577Z,19.10
2022-10-15T08:59:36.895Z,19.80
2022-10-15T09:02:20.006Z,20.20
2022-10-15T09:05:29.171Z,20.00
2022-10-15T09:10:55.813Z,20.60
2022-10-15T09:13:42.400Z,20.50
2022-10-15T09:16:34.502Z,19.70
2022-10-15T09:19:10.194Z,19.80
2022-10-15T09:21:38.477Z,20.10
2022-10-15T09:24:06.786Z,19.50
2022-10-15T09:26:45.794Z,20.20
2022-10-15T09:29:24.716Z,19.20
2022-10-15T09:32:24.187Z,20.10
2022-10-15T09:35:06.549Z,19.30
2022-10-15T09:37:46.270Z,19.30
2022-10-15T09:40:59.442Z,19.60
2022-10-15T09:43:37.601Z,19.10
2022-10-15T09:46:06.254Z,19.30
2022-10-15T09:48:44.215Z,19.40
2022-10-15T09:51:33.054Z,19.60
2022-10-15T09:54:31.893Z,20.00
2022-10-15T09:56:59.038Z,19.60
2022-10-15T09:59:26.990Z,19.50
2022-10-15T10:02:03.251Z,19.70
2022-10-15T10:04:34.449Z,19.00
2022-10-15T10:07:09.729Z,19.10
2022-10-15T10:09:49.762Z,19.80
2022-10-15T10:12:27.566Z,19.30
2022-10-15T10:15:26.723Z,19.30
2022-10-15T10:17:56.124Z,19.10
2022-10-15T10:20:26.651Z,18.70
2022-10-15T10:23:23.456Z,20.10
2022-10-15T10:25:51.124Z,18.80
2022-10-15T10:28:39.255Z,19.30
2022-10-15T10:31:11.086Z,20.00
2022-10-15T10:33:49.089Z,20.20
2022-10-15T10:36:39.459Z,19.50
2022-10-15T10:39:15.054Z,19.90
2022-10-15T10:41:56.187Z,20.00
2022-10-15T10:44:42.171Z,20.00
2022-10-15T10:47:18.462Z,19.70
2022-10-15T10:49:47.442Z,20.60
2022-10-15T10:52:31.389Z,19.60
2022-10-15T10:55:18.877Z,21.90
2022-10-15T10:57:56.802Z,21.40
2022-10-15T11:00:42.097Z,21.30
2022-10-15T11:03:35.580Z,21.80
2022-10-15T11:06:30.601Z,20.20
2022-10-15T11:09:47.924Z,21.10
2022-10-15T11:12:38.416Z,19.70
2022-10-15T11:15:21.815Z,20.10
2022-10-15T11:18:07.992Z,20.50
2022-10-15T11:21:01.818Z,19.90
2022-10-15T11:24:16.596Z,20.10
2022-10-15T11:27:10.097Z,20.00
2022-10-15T11:30:29.915Z,20.80
2022-10-15T11:33:30.938Z,19.60
2022-10-15T11:36:34.605Z,20.30
2022-10-15T11:39:13.904Z,19.90
2022-10-15T11:42:04.414Z,20.10
2022-10-15T11:45:04.178Z,19.20
2022-10-15T11:48:02.212Z,20.70
2022-10-15T11:50:43.131Z,20.70
2022-10-15T11:53:58.244Z,19.00
2022-10-15T11:56:41.371Z,18.40
2022-10-15T11:59:24.005Z,18.90
2022-10-15T12:02:24.070Z,20.00
2022-10-15T12:04:58.262Z,20.30
2022-10-15T12:07:38.047Z,20.60
2022-10-15T12:10:36.038Z,17.80
2022-10-15T12:13:39.483Z,19.00
2022-10-15T12:16:45.448Z,19.40
2022-10-15T12:19:20.218Z,20.10
2022-10-15T12:21:56.214Z,18.60
2022-10-15T12:24:38.672Z,19.20
2022-10-15T12:27:25.836Z,19.00
2022-10-15T12:30:20.042Z,18.30
2022-10-15T12:32:51.023Z,18.40
2022-10-15T12:35:30.256Z,17.80
2022-10-15T12:38:31.099Z,18.30
2022-10-15T12:41:09.650Z,18.20
2022-10-15T12:43:53.418Z,18.30
2022-10-15T12:46:20.914Z,17.50
2022-10-15T12:51:24.914Z,18.30
2022-10-15T12:53:58.897Z,18.10
2022-10-15T12:56:43.322Z,18.80
2022-10-15T12:59:32.104Z,18.00
2022-10-15T13:04:39.481Z,17.50
2022-10-15T13:07:07.144Z,18.20
2022-10-15T13:09:34.941Z,18.60
2022-10-15T13:12:04.048Z,17.50
2022-10-15T13:14:50.850Z,18.10
2022-10-15T13:17:23.016Z,18.40
2022-10-15T13:20:08.642Z,16.50
2022-10-15T13:22:37.226Z,18.60
2022-10-15T13:25:05.129Z,18.10
2022-10-15T13:27:37.821Z,17.80
2022-10-15T13:30:16.967Z,17.50
2022-10-15T13:32:50.893Z,16.90
2022-10-15T13:35:29.104Z,17.60
2022-10-15T13:37:58.666Z,17.20
2022-10-15T13:40:31.244Z,17.50
2022-10-15T13:43:14.725Z,18.00
2022-10-15T13:46:04.861Z,16.80
2022-10-15T13:48:33.574Z,17.00
2022-10-15T13:51:04.808Z,17.40
2022-10-15T13:53:41.837Z,17.20
2022-10-15T13:56:30.935Z,17.30
2022-10-15T13:59:04.317Z,16.50
2022-10-15T14:01:35.077Z,18.10
2022-10-15T14:04:04.083Z,17.70
2022-10-15T14:06:40.133Z,16.40
2022-10-15T14:09:43.449Z,18.30
2022-10-15T14:12:12.283Z,15.90
2022-10-15T14:14:48.127Z,16.50
2022-10-15T14:17:26.339Z,16.10
2022-10-15T14:20:25.747Z,18.20
2022-10-15T14:22:52.178Z,16.80
2022-10-15T14:25:25.318Z,17.20
2022-10-15T14:30:34.212Z,17.40
2022-10-15T14:33:01.833Z,17.40
2022-10-15T14:35:38.102Z,16.50
2022-10-15T14:38:17.179Z,17.10
2022-10-15T14:41:09.310Z,16.80
2022-10-15T14:43:38.469Z,16.80
2022-10-15T14:46:13.644Z,17.10
2022-10-15T14:48:45.157Z,16.80
2022-10-15T14:51:26.039Z,17.60
2022-10-15T14:53:54.293Z,16.60
2022-10-15T14:56:32.443Z,16.10
2022-10-15T14:59:01.316Z,17.20
2022-10-15T15:01:30.474Z,17.10
2022-10-15T15:03:57.581Z,17.10
2022-10-15T15:06:25.473Z,16.40
2022-10-15T15:08:52.530Z,16.80
2022-10-15T15:11:25.751Z,15.80
2022-10-15T15:13:55.537Z,16.90
2022-10-15T15:16:22.930Z,16.90
2022-10-15T15:18:50.026Z,17.00
2022-10-15T15:21:23.641Z,16.70
2022-10-15T15:23:51.628Z,17.00
2022-10-15T15:26:18.882Z,16.30
2022-10-15T15:31:18.088Z,17.10
2022-10-15T15:33:46.324Z,16.60
2022-10-15T15:36:20.629Z,15.70
2022-10-15T15:38:51.758Z,15.70
2022-10-15T15:41:22.682Z,16.60
2022-10-15T15:46:18.787Z,16.50
2022-10-15T15:51:30.473Z,16.00
2022-10-15T15:53:58.743Z,16.90
2022-10-15T15:56:26.106Z,16.40
2022-10-15T15:58:53.322Z,16.00
2022-10-15T16:01:21.303Z,16.60
2022-10-15T16:03:48.834Z,16.60
2022-10-15T16:06:16.470Z,16.40
2022-10-15T16:08:46.124Z,16.60
2022-10-15T16:11:13.313Z,15.70
2022-10-15T16:13:41.880Z,16.00
2022-10-15T16:16:10.161Z,16.20
2022-10-15T16:18:37.990Z,16.60
2022-10-15T16:21:05.388Z,16.90
2022-10-15T16:23:32.485Z,15.70
2022-10-15T16:26:02.159Z,16.20
2022-10-15T16:28:29.458Z,15.60
2022-10-15T16:31:27.885Z,16.10
2022-10-15T16:33:57.861Z,15.10
2022-10-15T16:36:25.583Z,15.00
2022-10-15T16:41:20.623Z,17.00
2022-10-15T16:46:18.917Z,16.10
2022-10-15T16:48:47.134Z,16.70
2022-10-15T16:51:16.317Z,16.50
2022-10-15T16:53:46.441Z,15.80
2022-10-15T16:56:24.085Z,15.50
2022-10-15T16:58:51.949Z,16.90
2022-10-15T17:01:26.517Z,16.10
2022-10-15T17:03:54.236Z,16.60
2022-10-15T17:06:28.639Z,15.10
2022-10-15T17:09:04.209Z,16.60
2022-10-15T17:11:38.746Z,15.80
2022-10-15T17:14:13.606Z,15.70
2022-10-15T17:16:47.648Z,15.60
2022-10-15T17:19:19.421Z,15.30
2022-10-15T17:21:47.333Z,14.50
2022-10-15T17:24:17.675Z,16.60
2022-10-15T17:26:46.852Z,14.80
2022-10-15T17:29:20.956Z,15.80
2022-10-15T17:31:50.934Z,16.20
2022-10-15T17:34:19.409Z,15.40
2022-10-15T17:36:51.062Z,15.90
2022-10-15T17:39:23.059Z,15.20
2022-10-15T17:41:52.386Z,15.30
2022-10-15T17:44:21.376Z,16.10
2022-10-15T17:49:21.698Z,15.80
2022-10-15T17:51:49.017Z,15.60
2022-10-15T17:54:16.450Z,16.00
2022-10-15T17:56:45.325Z,15.40
2022-10-15T17:59:14.280Z,15.50
2022-10-15T18:02:00.297Z,16.40
2022-10-15T18:04:31.770Z,15.60
2022-10-15T18:06:59.266Z,16.10
2022-10-15T18:09:28.456Z,16.00
2022-10-15T18:11:58.516Z,16.80
2022-10-15T18:14:26.954Z,15.00
2022-10-15T18:16:55.193Z,15.20
2022-10-15T18:19:27.369Z,15.70
2022-10-15T18:21:56.435Z,15.90
2022-10-15T18:24:25.232Z,15.20
2022-10-15T18:29:26.994Z,14.90
2022-10-15T18:32:01.086Z,16.20
2022-10-15T18:34:30.761Z,15.50
2022-10-15T18:36:59.300Z,16.30
2022-10-15T18:39:36.593Z,16.50
2022-10-15T18:42:04.568Z,14.90
2022-10-15T18:44:34.529Z,16.70
2022-10-15T18:47:02.425Z,15.60
2022-10-15T18:49:30.712Z,15.90
2022-10-15T18:52:06.351Z,15.40
2022-10-15T18:54:44.872Z,16.90
2022-10-15T18:57:13.749Z,15.10
2022-10-15T18:59:41.776Z,15.60
2022-10-15T19:02:10.592Z,16.60
2022-10-15T19:07:06.272Z,16.10
2022-10-15T19:09:35.244Z,16.50
2022-10-15T19:12:03.588Z,16.60
2022-10-15T19:14:31.475Z,14.50
2022-10-15T19:17:00.101Z,16.30
2022-10-15T19:19:29.724Z,14.90
2022-10-15T19:21:57.520Z,15.20
2022-10-15T19:26:53.271Z,15.60
2022-10-15T19:29:21.385Z,14.40
2022-10-15T19:31:51.156Z,15.00
2022-10-15T19:34:19.073Z,14.40
2022-10-15T19:36:51.124Z,14.60
2022-10-15T19:39:23.273Z,16.40
2022-10-15T19:41:52.356Z,15.00
2022-10-15T19:44:25.766Z,14.70
2022-10-15T19:46:56.813Z,15.00
2022-10-15T19:49:25.363Z,14.90
2022-10-15T19:51:53.208Z,15.40
2022-10-15T19:54:20.620Z,15.30
2022-10-15T19:56:47.943Z,15.10
2022-10-15T19:59:16.930Z,15.40
2022-10-15T20:01:44.400Z,14.20
2022-10-15T20:04:12.057Z,14.90
2022-10-15T20:06:39.557Z,14.60
2022-10-15T20:09:12.942Z,14.80
2022-10-15T20:11:40.277Z,15.00
2022-10-15T20:14:07.910Z,14.60
2022-10-15T20:16:35.517Z,14.50
2022-10-15T20:19:05.570Z,14.40
2022-10-15T20:21:33.735Z,14.40
2022-10-15T20:24:04.630Z,14.50
2022-10-15T20:26:32.674Z,14.50
2022-10-15T20:29:00.237Z,14.90
2022-10-15T20:31:32.333Z,14.80
2022-10-15T20:34:00.924Z,14.60
2022-10-15T20:36:28.768Z,14.80
2022-10-15T20:38:57.582Z,15.40
2022-10-15T20:41:25.132Z,15.00
2022-10-15T20:43:55.354Z,15.30
2022-10-15T20:46:40.273Z,15.10
2022-10-15T20:49:14.678Z,16.00
2022-10-15T20:51:44.555Z,14.60
2022-10-15T20:54:14.988Z,15.20
2022-10-15T20:56:42.865Z,15.20
2022-10-15T20:59:10.228Z,15.10
2022-10-15T21:01:39.120Z,14.70
2022-10-15T21:04:06.827Z,15.30
2022-10-15T21:06:34.194Z,14.70
2022-10-15T21:09:03.203Z,14.40
2022-10-15T21:11:30.684Z,14.30
2022-10-15T21:14:02.281Z,15.50
2022-10-15T21:16:29.714Z,14.50
2022-10-15T21:18:57.115Z,14.50
2022-10-15T21:21:24.557Z,15.00
2022-10-15T21:23:52.660Z,14.90
2022-10-15T21:28:48.324Z,13.90
2022-10-15T21:31:18.019Z,14.50
2022-10-15T21:33:46.344Z,14.30
2022-10-15T21:36:21.896Z,15.20
2022-10-15T21:38:56.899Z,15.20
2022-10-15T21:41:26.851Z,15.00
2022-10-15T21:43:54.300Z,15.50
2022-10-15T21:46:24.482Z,15.00
2022-10-15T21:48:52.718Z,15.00
2022-10-15T21:51:27.300Z,15.20
2022-10-15T21:53:56.095Z,14.50
2022-10-15T21:56:23.670Z,14.80
2022-10-15T21:58:52.158Z,14.60
2022-10-15T22:01:37.947Z,14.20
2022-10-15T22:04:11.562Z,14.60
2022-10-15T22:06:40.649Z,14.10
2022-10-15T22:09:10.399Z,14.70
2022-10-15T22:11:41.170Z,14.90
2022-10-15T22:14:13.085Z,14.20
2022-10-15T22:16:42.803Z,14.40
2022-10-15T22:19:14.668Z,14.30
2022-10-15T22:21:41.956Z,14.40
2022-10-15T22:24:15.229Z,14.80
2022-10-15T22:26:47.490Z,14.20
2022-10-15T22:29:31.832Z,14.20
2022-10-15T22:32:01.892Z,14.40
2022-10-15T22:34:29.045Z,14.40
2022-10-15T22:36:56.321Z,14.20
2022-10-15T22:39:23.708Z,14.40
2022-10-15T22:41:51.155Z,14.10
2022-10-15T22:44:21.750Z,14.00
2022-10-15T22:46:50.271Z,14.20
2022-10-15T22:49:21.041Z,14.10
2022-10-15T22:51:50.457Z,14.30
2022-10-15T22:54:19.992Z,14.20
2022-10-15T22:56:47.543Z,13.90
2022-10-15T22:59:15.760Z,13.80
2022-10-15T23:01:43.462Z,13.50
2022-10-15T23:04:14.525Z,14.40
2022-10-15T23:06:43.671Z,14.20
2022-10-15T23:09:17.728Z,14.60
2022-10-15T23:11:46.419Z,15.50
2022-10-15T23:14:15.871Z,14.50
2022-10-15T23:16:46.661Z,13.60
2022-10-15T23:19:19.913Z,14.70
2022-10-15T23:21:48.424Z,15.20
2022-10-15T23:24:18.577Z,14.20
2022-10-15T23:26:46.577Z,14.10
2022-10-15T23:29:17.770Z,14.90
2022-10-15T23:31:46.130Z,15.10
2022-10-15T23:34:20.683Z,13.40
2022-10-15T23:36:48.737Z,15.10
2022-10-15T23:39:20.389Z,15.20
2022-10-15T23:41:48.149Z,15.00
2022-10-15T23:44:15.614Z,13.60
2022-10-15T23:46:43.051Z,13.40
2022-10-15T23:49:11.095Z,14.40
2022-10-15T23:51:39.104Z,14.40
2022-10-15T23:54:16.198Z,15.20
2022-10-15T23:56:47.513Z,14.20
2022-10-15T23:59:17.371Z,14.10
